createdAt,value
2022-09-16T00:00:14.178Z,53.10
2022-09-16T00:03:07.403Z,53.10
2022-09-16T00:06:00.200Z,53.10
2022-09-16T00:08:56.981Z,53.10
2022-09-16T00:11:50.484Z,53.00
2022-09-16T00:14:43.578Z,53.10
2022-09-16T00:17:37.818Z,53.00
2022-09-16T00:20:30.143Z,53.00
2022-09-16T00:23:23.460Z,53.10
2022-09-16T00:26:19.030Z,53.00
2022-09-16T00:29:13.790Z,53.10
2022-09-16T00:32:06.417Z,53.10
2022-09-16T00:34:59.523Z,53.00
2022-09-16T00:37:52.907Z,53.00
2022-09-16T00:40:48.209Z,53.00
2022-09-16T00:43:55.479Z,53.00
2022-09-16T00:46:49.390Z,53.00
2022-09-16T00:49:43.442Z,53.10
2022-09-16T00:52:37.254Z,53.00
2022-09-16T00:55:35.266Z,53.00
2022-09-16T00:58:35.845Z,53.10
2022-09-16T01:01:30.420Z,53.10
2022-09-16T01:04:27.737Z,53.00
2022-09-16T01:07:25.278Z,53.10
2022-09-16T01:10:21.052Z,53.00
2022-09-16T01:13:16.529Z,53.00
2022-09-16T01:16:13.438Z,53.00
2022-09-16T01:19:21.458Z,53.00
2022-09-16T01:22:26.751Z,52.90
2022-09-16T01:25:32.840Z,53.00
2022-09-16T01:28:47.830Z,52.90
2022-09-16T01:31:47.843Z,52.90
2022-09-16T01:34:51.540Z,52.90
2022-09-16T01:37:53.915Z,52.90
2022-09-16T01:40:55.991Z,52.80
2022-09-16T01:43:57.065Z,52.90
2022-09-16T01:47:01.172Z,52.80
2022-09-16T01:50:02.103Z,52.70
2022-09-16T01:53:04.084Z,52.70
2022-09-16T01:56:02.291Z,52.70
2022-09-16T01:59:02.177Z,52.70
2022-09-16T02:02:00.598Z,52.70
2022-09-16T02:04:57.416Z,52.60
2022-09-16T02:07:55.407Z,52.60
2022-09-16T02:10:52.702Z,52.60
2022-09-16T02:13:48.666Z,52.60
2022-09-16T02:16:46.455Z,52.60
2022-09-16T02:19:44.868Z,52.60
2022-09-16T02:22:42.979Z,52.60
2022-09-16T02:25:39.005Z,52.70
2022-09-16T02:28:35.969Z,52.60
2022-09-16T02:31:34.895Z,52.70
2022-09-16T02:34:31.173Z,52.50
2022-09-16T02:37:32.208Z,52.50
2022-09-16T02:40:30.223Z,52.50
2022-09-16T02:43:24.220Z,52.50
2022-09-16T02:46:26.096Z,52.50
2022-09-16T02:49:27.571Z,52.50
2022-09-16T02:52:31.200Z,52.50
2022-09-16T02:55:37.378Z,52.50
2022-09-16T02:58:30.928Z,52.50
2022-09-16T03:01:25.219Z,52.50
2022-09-16T03:04:20.759Z,52.50
2022-09-16T03:07:15.081Z,52.40
2022-09-16T03:10:12.737Z,52.40
2022-09-16T03:13:11.664Z,52.50
2022-09-16T03:16:08.257Z,52.50
2022-09-16T03:19:12.927Z,52.50
2022-09-16T03:22:14.092Z,52.50
2022-09-16T03:25:19.707Z,52.50
2022-09-16T03:28:16.903Z,52.50
2022-09-16T03:31:14.078Z,52.50
2022-09-16T03:34:10.565Z,52.50
2022-09-16T03:37:08.159Z,52.50
2022-09-16T03:40:10.013Z,52.50
2022-09-16T03:43:12.198Z,52.50
2022-09-16T03:46:11.668Z,52.50
2022-09-16T03:49:04.687Z,52.40
2022-09-16T03:51:57.841Z,52.40
2022-09-16T03:54:50.849Z,52.30
2022-09-16T03:57:44.403Z,52.30
2022-09-16T04:00:39.275Z,52.40
2022-09-16T04:03:33.497Z,52.30
2022-09-16T04:06:26.665Z,52.30
2022-09-16T04:09:19.544Z,52.30
2022-09-16T04:12:12.531Z,52.30
2022-09-16T04:15:06.578Z,52.30
2022-09-16T04:18:01.570Z,52.30
2022-09-16T04:20:57.909Z,52.30
2022-09-16T04:23:51.361Z,52.30
2022-09-16T04:26:45.461Z,52.30
2022-09-16T04:29:38.725Z,52.40
2022-09-16T04:32:31.551Z,52.40
2022-09-16T04:35:26.604Z,52.40
2022-09-16T04:38:19.686Z,52.40
2022-09-16T04:41:15.267Z,52.50
2022-09-16T04:44:08.639Z,52.50
2022-09-16T04:47:01.640Z,52.50
2022-09-16T04:49:54.605Z,52.50
2022-09-16T04:52:49.047Z,52.50
2022-09-16T04:55:42.103Z,52.50
2022-09-16T04:58:35.924Z,52.50
2022-09-16T05:01:31.073Z,52.50
2022-09-16T05:04:24.467Z,52.40
2022-09-16T05:07:17.474Z,52.50
2022-09-16T05:10:11.943Z,53.00
2022-09-16T05:13:04.652Z,52.40
2022-09-16T05:16:01.576Z,52.40
2022-09-16T05:18:57.855Z,52.40
2022-09-16T05:21:51.196Z,52.40
2022-09-16T05:24:44.900Z,52.30
2022-09-16T05:27:39.411Z,52.30
2022-09-16T05:30:32.742Z,52.30
2022-09-16T05:33:25.386Z,52.30
2022-09-16T05:36:19.369Z,52.30
2022-09-16T05:39:28.497Z,52.30
2022-09-16T05:42:21.741Z,52.30
2022-09-16T05:45:20.098Z,52.30
2022-09-16T05:48:16.644Z,52.30
2022-09-16T05:51:12.495Z,52.30
2022-09-16T05:54:05.928Z,52.30
2022-09-16T05:57:01.253Z,52.30
2022-09-16T05:59:58.081Z,52.30
2022-09-16T06:02:52.199Z,52.30
2022-09-16T06:05:45.980Z,52.20
2022-09-16T06:08:39.195Z,52.20
2022-09-16T06:11:33.122Z,52.20
2022-09-16T06:14:26.471Z,52.20
2022-09-16T06:17:19.724Z,52.20
2022-09-16T06:20:14.784Z,52.20
2022-09-16T06:23:08.084Z,52.20
2022-09-16T06:26:02.174Z,52.20
2022-09-16T06:28:56.245Z,52.20
2022-09-16T06:31:49.848Z,52.30
2022-09-16T06:34:42.733Z,52.20
2022-09-16T06:37:36.991Z,52.30
2022-09-16T06:40:30.065Z,52.30
2022-09-16T06:43:22.745Z,52.30
2022-09-16T06:46:17.952Z,52.30
2022-09-16T06:49:12.870Z,52.20
2022-09-16T06:52:05.713Z,52.20
2022-09-16T06:55:01.213Z,52.10
2022-09-16T06:57:54.878Z,52.10
2022-09-16T07:00:47.870Z,52.00
2022-09-16T07:03:43.163Z,52.10
2022-09-16T07:07:08.847Z,52.20
2022-09-16T07:09:48.980Z,52.20
2022-09-16T07:12:42.924Z,52.30
2022-09-16T07:15:50.910Z,52.30
2022-09-16T07:18:49.111Z,52.40
2022-09-16T07:21:41.862Z,52.40
2022-09-16T07:24:34.779Z,52.40
2022-09-16T07:27:28.318Z,52.50
2022-09-16T07:30:23.171Z,52.50
2022-09-16T07:33:15.885Z,52.60
2022-09-16T07:36:11.007Z,52.60
2022-09-16T07:39:05.824Z,52.60
2022-09-16T07:42:01.600Z,52.60
2022-09-16T07:44:58.842Z,52.70
2022-09-16T07:47:53.185Z,52.70
2022-09-16T07:50:45.656Z,52.60
2022-09-16T07:53:39.455Z,52.70
2022-09-16T07:56:34.409Z,52.60
2022-09-16T07:59:27.940Z,52.60
2022-09-16T08:02:21.350Z,51.80
2022-09-16T08:05:16.307Z,51.60
2022-09-16T08:08:09.860Z,52.10
2022-09-16T08:11:03.791Z,52.40
2022-09-16T08:13:58.980Z,52.60
2022-09-16T08:16:52.104Z,52.60
2022-09-16T08:19:44.450Z,52.70
2022-09-16T08:22:39.116Z,52.60
2022-09-16T08:25:31.854Z,52.60
2022-09-16T08:28:24.964Z,52.30
2022-09-16T08:31:18.884Z,52.50
2022-09-16T08:34:11.688Z,52.60
2022-09-16T08:37:04.988Z,52.60
2022-09-16T08:39:59.424Z,51.80
2022-09-16T08:43:05.405Z,52.50
2022-09-16T08:46:09.548Z,51.60
2022-09-16T08:49:12.045Z,52.40
2022-09-16T08:52:10.741Z,51.30
2022-09-16T08:55:11.557Z,51.40
2022-09-16T08:58:08.667Z,50.90
2022-09-16T09:01:06.032Z,50.80
2022-09-16T09:04:00.506Z,51.00
2022-09-16T09:07:07.900Z,50.70
2022-09-16T09:10:10.756Z,50.20
2022-09-16T09:13:13.859Z,50.30
2022-09-16T09:16:17.475Z,50.60
2022-09-16T09:19:31.368Z,50.70
2022-09-16T09:22:36.499Z,50.50
2022-09-16T09:25:39.525Z,50.90
2022-09-16T09:29:08.772Z,50.90
2022-09-16T09:32:15.877Z,50.80
2022-09-16T09:35:22.867Z,50.90
2022-09-16T09:38:36.798Z,50.70
2022-09-16T09:41:35.516Z,51.00
2022-09-16T09:44:42.909Z,51.10
2022-09-16T09:47:42.201Z,51.40
2022-09-16T09:50:41.343Z,51.50
2022-09-16T09:53:39.231Z,51.90
2022-09-16T09:56:38.821Z,50.90
2022-09-16T09:59:38.427Z,51.00
2022-09-16T10:02:32.029Z,50.30
2022-09-16T10:05:27.020Z,51.00
2022-09-16T10:08:30.184Z,51.60
2022-09-16T10:11:25.093Z,51.80
2022-09-16T10:14:32.388Z,51.90
2022-09-16T10:17:28.233Z,51.90
2022-09-16T10:20:29.308Z,52.00
2022-09-16T10:23:29.737Z,52.00
2022-09-16T10:26:26.017Z,52.00
2022-09-16T10:29:20.292Z,52.00
2022-09-16T10:32:18.989Z,52.00
2022-09-16T10:35:21.020Z,52.00
2022-09-16T10:38:19.051Z,52.00
2022-09-16T10:41:22.025Z,52.00
2022-09-16T10:44:18.770Z,52.00
2022-09-16T10:47:20.250Z,52.00
2022-09-16T10:50:19.047Z,52.00
2022-09-16T10:53:24.155Z,52.00
2022-09-16T10:56:20.619Z,52.00
2022-09-16T10:59:15.421Z,52.00
2022-09-16T11:02:18.962Z,52.00
2022-09-16T11:05:22.821Z,52.00
2022-09-16T11:08:27.756Z,51.80
2022-09-16T11:14:36.421Z,51.30
2022-09-16T11:17:52.533Z,51.80
2022-09-16T11:21:10.006Z,52.00
2022-09-16T11:24:12.935Z,52.00
2022-09-16T11:27:15.580Z,52.10
2022-09-16T11:30:13.107Z,52.00
2022-09-16T11:33:22.274Z,52.00
2022-09-16T11:36:26.071Z,52.00
2022-09-16T11:39:35.988Z,52.10
2022-09-16T11:42:34.826Z,52.10
2022-09-16T11:45:42.266Z,52.10
2022-09-16T11:48:48.777Z,52.10
2022-09-16T11:51:58.300Z,52.10
2022-09-16T11:55:06.797Z,52.10
2022-09-16T11:58:04.876Z,52.10
2022-09-16T12:01:11.131Z,52.10
2022-09-16T12:04:10.838Z,52.10
2022-09-16T12:07:12.161Z,52.10
2022-09-16T12:10:13.687Z,52.00
2022-09-16T12:13:15.324Z,52.00
2022-09-16T12:16:12.277Z,52.00
2022-09-16T12:19:12.627Z,52.00
2022-09-16T12:22:13.090Z,52.00
2022-09-16T12:25:13.060Z,52.60
2022-09-16T12:28:17.364Z,52.00
2022-09-16T12:31:23.076Z,51.90
2022-09-16T12:34:23.298Z,52.00
2022-09-16T12:37:25.795Z,52.00
2022-09-16T12:40:24.546Z,52.00
2022-09-16T12:44:02.190Z,52.00
2022-09-16T12:47:31.240Z,52.00
2022-09-16T12:50:44.313Z,52.60
2022-09-16T12:54:03.114Z,52.00
2022-09-16T12:57:23.049Z,52.00
2022-09-16T13:00:21.923Z,52.00
2022-09-16T13:03:19.085Z,52.00
2022-09-16T13:06:23.053Z,51.30
2022-09-16T13:09:23.615Z,51.10
2022-09-16T13:15:39.051Z,51.80
2022-09-16T13:18:44.653Z,50.50
2022-09-16T13:21:44.884Z,51.10
2022-09-16T13:24:42.236Z,51.40
2022-09-16T13:27:36.883Z,51.90
2022-09-16T13:30:36.679Z,51.80
2022-09-16T13:33:30.383Z,52.00
2022-09-16T13:36:34.787Z,52.10
2022-09-16T13:39:30.667Z,52.00
2022-09-16T13:42:26.125Z,52.10
2022-09-16T13:45:32.841Z,52.10
2022-09-16T13:48:28.713Z,52.00
2022-09-16T13:51:23.655Z,52.10
2022-09-16T13:54:23.330Z,52.00
2022-09-16T13:57:27.536Z,52.00
2022-09-16T14:00:22.950Z,52.00
2022-09-16T14:03:42.142Z,52.00
2022-09-16T14:07:03.619Z,52.00
2022-09-16T14:10:01.808Z,52.00
2022-09-16T14:13:10.196Z,52.00
2022-09-16T14:16:03.638Z,52.00
2022-09-16T14:19:04.329Z,52.00
2022-09-16T14:22:06.608Z,52.00
2022-09-16T14:25:06.486Z,52.00
2022-09-16T14:28:17.056Z,52.00
2022-09-16T14:31:15.449Z,52.00
2022-09-16T14:34:11.032Z,52.00
2022-09-16T14:37:06.253Z,52.00
2022-09-16T14:40:06.173Z,52.00
2022-09-16T14:43:03.149Z,52.00
2022-09-16T14:45:59.657Z,52.00
2022-09-16T14:48:53.568Z,52.00
2022-09-16T14:51:50.853Z,52.00
2022-09-16T14:54:46.326Z,52.00
2022-09-16T14:57:39.071Z,52.00
2022-09-16T15:00:38.470Z,52.00
2022-09-16T15:03:38.276Z,52.00
2022-09-16T15:06:36.789Z,52.00
2022-09-16T15:09:37.556Z,52.00
2022-09-16T15:12:34.152Z,52.00
2022-09-16T15:15:29.460Z,52.00
2022-09-16T15:18:25.552Z,52.00
2022-09-16T15:21:22.629Z,52.00
2022-09-16T15:24:21.402Z,52.00
2022-09-16T15:27:22.303Z,52.00
2022-09-16T15:30:23.423Z,52.00
2022-09-16T15:33:34.544Z,52.00
2022-09-16T15:36:41.815Z,52.00
2022-09-16T15:39:38.357Z,52.00
2022-09-16T15:42:32.037Z,51.90
2022-09-16T15:45:25.419Z,51.90
2022-09-16T15:48:20.874Z,51.90
2022-09-16T15:51:29.376Z,51.90
2022-09-16T15:54:27.522Z,51.90
2022-09-16T15:57:29.816Z,51.90
2022-09-16T16:00:23.137Z,51.90
2022-09-16T16:03:21.235Z,51.90
2022-09-16T16:06:14.914Z,51.90
2022-09-16T16:09:08.730Z,51.90
2022-09-16T16:12:07.856Z,51.90
2022-09-16T16:15:01.419Z,51.90
2022-09-16T16:17:56.836Z,51.90
2022-09-16T16:20:50.490Z,51.90
2022-09-16T16:23:43.687Z,51.90
2022-09-16T16:26:37.388Z,51.90
2022-09-16T16:29:32.551Z,51.90
2022-09-16T16:32:25.189Z,51.90
2022-09-16T16:35:17.873Z,51.90
2022-09-16T16:38:11.189Z,51.90
2022-09-16T16:41:04.262Z,51.90
2022-09-16T16:43:57.398Z,51.90
2022-09-16T16:46:52.954Z,51.90
2022-09-16T16:49:50.820Z,51.90
2022-09-16T16:52:44.381Z,51.90
2022-09-16T16:55:37.224Z,51.90
2022-09-16T16:58:31.362Z,51.90
2022-09-16T17:01:24.504Z,51.90
2022-09-16T17:04:19.220Z,51.90
2022-09-16T17:07:25.851Z,51.80
2022-09-16T17:10:20.514Z,51.80
2022-09-16T17:13:13.473Z,51.80
2022-09-16T17:16:08.063Z,51.80
2022-09-16T17:19:03.242Z,51.70
2022-09-16T17:21:57.740Z,51.70
2022-09-16T17:24:51.452Z,51.70
2022-09-16T17:27:44.376Z,51.70
2022-09-16T17:30:37.438Z,51.70
2022-09-16T17:33:30.936Z,51.60
2022-09-16T17:36:26.227Z,51.60
2022-09-16T17:39:22.207Z,51.60
2022-09-16T17:42:15.375Z,51.60
2022-09-16T17:45:08.993Z,51.60
2022-09-16T17:48:02.129Z,51.50
2022-09-16T17:50:56.087Z,51.40
2022-09-16T17:53:49.337Z,51.30
2022-09-16T17:56:44.558Z,51.40
2022-09-16T17:59:37.050Z,51.20
2022-09-16T18:02:30.561Z,51.20
2022-09-16T18:05:26.725Z,51.20
2022-09-16T18:08:23.604Z,51.10
2022-09-16T18:11:18.100Z,51.10
2022-09-16T18:14:14.399Z,51.00
2022-09-16T18:17:07.367Z,51.00
2022-09-16T18:20:03.719Z,51.00
2022-09-16T18:22:59.514Z,50.90
2022-09-16T18:25:52.456Z,50.90
2022-09-16T18:29:18.893Z,50.80
2022-09-16T18:32:01.674Z,50.80
2022-09-16T18:34:54.879Z,50.80
2022-09-16T18:37:48.593Z,50.80
2022-09-16T18:40:42.667Z,50.80
2022-09-16T18:43:35.699Z,50.70
2022-09-16T18:46:29.833Z,50.70
2022-09-16T18:49:27.061Z,51.30
2022-09-16T18:52:20.441Z,50.60
2022-09-16T18:55:14.709Z,50.40
2022-09-16T18:58:07.447Z,50.30
2022-09-16T19:01:09.501Z,50.20
2022-09-16T19:04:04.531Z,50.20
2022-09-16T19:07:07.293Z,50.20
2022-09-16T19:10:00.442Z,50.20
2022-09-16T19:12:53.441Z,50.20
2022-09-16T19:15:46.403Z,50.10
2022-09-16T19:18:39.820Z,50.10
2022-09-16T19:21:33.630Z,50.10
2022-09-16T19:24:28.313Z,50.00
2022-09-16T19:27:21.532Z,50.00
2022-09-16T19:30:14.801Z,49.90
2022-09-16T19:33:08.218Z,49.90
2022-09-16T19:36:01.315Z,49.90
2022-09-16T19:38:54.905Z,49.90
2022-09-16T19:41:49.767Z,49.80
2022-09-16T19:44:42.645Z,49.80
2022-09-16T19:47:35.870Z,49.70
2022-09-16T19:50:29.626Z,49.80
2022-09-16T19:53:22.798Z,49.80
2022-09-16T19:56:21.181Z,49.70
2022-09-16T19:59:15.600Z,49.70
2022-09-16T20:02:11.080Z,49.70
2022-09-16T20:05:08.826Z,49.70
2022-09-16T20:08:02.617Z,49.70
2022-09-16T20:10:55.502Z,49.80
2022-09-16T20:13:49.673Z,49.80
2022-09-16T20:16:43.940Z,49.80
2022-09-16T20:19:37.324Z,49.80
2022-09-16T20:22:30.636Z,49.80
2022-09-16T20:25:23.886Z,49.80
2022-09-16T20:28:17.574Z,49.90
2022-09-16T20:31:14.231Z,49.80
2022-09-16T20:34:08.886Z,49.80
2022-09-16T20:37:02.420Z,49.80
2022-09-16T20:39:56.437Z,49.80
2022-09-16T20:42:49.319Z,49.80
2022-09-16T20:45:44.919Z,49.70
2022-09-16T20:48:38.706Z,49.70
2022-09-16T20:51:34.464Z,49.70
2022-09-16T20:54:27.103Z,49.60
2022-09-16T20:57:20.653Z,49.60
2022-09-16T21:00:15.011Z,49.60
2022-09-16T21:03:11.909Z,49.50
2022-09-16T21:06:06.747Z,49.50
2022-09-16T21:09:02.294Z,49.50
2022-09-16T21:11:55.367Z,49.50
2022-09-16T21:14:48.820Z,49.50
2022-09-16T21:17:41.656Z,49.40
2022-09-16T21:20:34.237Z,49.40
2022-09-16T21:23:27.763Z,49.40
2022-09-16T21:26:23.822Z,49.30
2022-09-16T21:29:20.724Z,49.30
2022-09-16T21:32:13.494Z,49.30
2022-09-16T21:35:07.391Z,49.30
2022-09-16T21:38:00.490Z,49.30
2022-09-16T21:40:58.259Z,49.30
2022-09-16T21:43:55.429Z,49.30
2022-09-16T21:46:49.530Z,49.30
2022-09-16T21:49:43.020Z,49.30
2022-09-16T21:52:36.335Z,49.30
2022-09-16T21:55:31.519Z,49.30
2022-09-16T21:58:24.388Z,49.30
2022-09-16T22:01:21.690Z,49.30
2022-09-16T22:04:15.856Z,49.20
2022-09-16T22:07:10.687Z,49.20
2022-09-16T22:10:03.527Z,49.10
2022-09-16T22:12:57.281Z,49.10
2022-09-16T22:15:50.993Z,49.10
2022-09-16T22:18:46.051Z,49.10
2022-09-16T22:21:41.572Z,49.10
2022-09-16T22:24:34.507Z,49.20
2022-09-16T22:27:29.683Z,49.10
2022-09-16T22:30:22.636Z,49.20
2022-09-16T22:33:15.618Z,49.20
2022-09-16T22:36:12.576Z,49.10
2022-09-16T22:39:07.759Z,49.10
2022-09-16T22:42:00.975Z,49.10
2022-09-16T22:44:54.646Z,49.10
2022-09-16T22:47:47.596Z,49.10
2022-09-16T22:50:40.663Z,49.20
2022-09-16T22:53:35.383Z,49.20
2022-09-16T22:56:31.905Z,49.10
2022-09-16T22:59:25.232Z,49.20
2022-09-16T23:02:18.604Z,49.20
2022-09-16T23:05:12.204Z,49.10
2022-09-16T23:08:05.651Z,49.10
2022-09-16T23:11:03.541Z,49.10
2022-09-16T23:13:57.989Z,49.10
2022-09-16T23:16:51.915Z,49.10
2022-09-16T23:19:44.256Z,49.10
2022-09-16T23:22:37.832Z,49.10
2022-09-16T23:25:30.770Z,49.10
2022-09-16T23:28:25.360Z,49.10
2022-09-16T23:31:20.130Z,49.20
2022-09-16T23:34:16.304Z,49.10
2022-09-16T23:37:09.379Z,49.10
2022-09-16T23:40:04.110Z,49.20
2022-09-16T23:42:57.752Z,49.20
2022-09-16T23:45:52.021Z,49.20
2022-09-16T23:48:46.209Z,49.10
2022-09-16T23:51:40.423Z,49.20
2022-09-16T23:54:33.663Z,49.20
2022-09-16T23:57:26.616Z,49.20
